Flight Track Log - Related Links

Times and Time Zones

All times are in EDT time to prevent confusion due to time zone crossing. See the UAL235 flight status page for this flight to view local times or setup timezone preferences in your user account.


Time Position Orientation Groundspeed Altitude Reporting Facility
EDT Latitude Longitude Course Direction KTS MPH feet Rate Location/Type
Tue 05:16:00 AM 21.1580 -157.2654 105° East  Level FlightAware Approximate
Tue 05:17:00 AM 21.1509 -157.1403 54° Northeast  Level FlightAware Approximate
Tue 05:17:23 AM 21.2333 -157.5500 51° Northeast 350 403 11,200  Level Honolulu Center
Tue 05:18:00 AM 21.2324 -157.0378 48° Northeast  Level FlightAware Approximate
Tue 05:19:00 AM 21.3077 -156.9301 54° Northeast  Level FlightAware Approximate
Tue 05:19:23 AM 21.3167 -157.3333 68° East 380 437 16,000  Level Honolulu Center
Tue 05:20:00 AM 21.3859 -156.8248 47° Northeast  Level FlightAware Approximate
Tue 05:21:00 AM 21.4681 -156.7229 54° Northeast  Level FlightAware Approximate
Tue 05:22:00 AM 21.5457 -156.6168 51° Northeast  Level FlightAware Approximate
Tue 05:22:24 AM 21.5167 -157.0333 54° Northeast 410 472 20,800  Level Honolulu Center
Tue 05:23:00 AM 21.6190 -156.5073 57° Northeast  Level FlightAware Approximate
Tue 05:23:24 AM 21.5667 -156.9333 62° Northeast 420 483 22,200  Level Honolulu Center
Tue 05:24:00 AM 21.6932 -156.4040 50° Northeast  Level FlightAware Approximate
Tue 05:24:24 AM 21.6333 -156.8333 54° Northeast 430 495 23,500  Level Honolulu Center
Tue 05:25:00 AM 21.7739 -156.3003 50° Northeast  Level FlightAware Approximate
Tue 05:25:24 AM 21.7000 -156.7333 54° Northeast 450 518 24,900  Level Honolulu Center
Tue 05:26:00 AM 21.8534 -156.1955 51° Northeast  Level FlightAware Approximate
Tue 05:26:24 AM 21.7667 -156.6167 58° Northeast 450 518 26,200  Level Honolulu Center
Tue 05:27:00 AM 21.9324 -156.0902 51° Northeast  Level FlightAware Approximate
Tue 05:27:24 AM 21.8500 -156.5167 48° Northeast 460 529 27,500  Level Honolulu Center
Tue 05:28:25 AM 21.9167 -156.4000 58° Northeast 460 529 28,500 1,091 Climbing Honolulu Center
Tue 05:29:25 AM 22.0000 -156.2833 52° Northeast 470 541 29,700 1,160 Climbing Honolulu Center
Tue 05:30:24 AM 22.0667 -156.1500 62° Northeast 470 541 30,800 1,300 Climbing Honolulu Center
Tue 05:31:25 AM 22.1333 -156.0333 58° Northeast 470 541 32,300 1,289 Climbing Honolulu Center
Tue 05:32:25 AM 22.2167 -155.9167 52° Northeast 470 541 33,400 1,250 Climbing Honolulu Center
Tue 05:33:25 AM 22.2833 -155.8000 58° Northeast 470 541 34,800 1,300 Climbing Honolulu Center
Tue 05:34:25 AM 22.3667 -155.6833 52° Northeast 470 541 36,000 600 Climbing Honolulu Center
Tue 05:35:25 AM 22.4333 -155.5667 58° Northeast 470 541 36,000  Level Honolulu Center
Tue 05:36:25 AM 22.5000 -155.4500 58° Northeast 460 529 36,000  Level Honolulu Center
Tue 05:37:25 AM 22.5833 -155.3333 52° Northeast 470 541 36,000  Level Honolulu Center
Tue 05:38:25 AM 22.6500 -155.2167 58° Northeast 460 529 36,000  Level Honolulu Center
Tue 05:39:26 AM 22.7333 -155.1000 52° Northeast 470 541 36,000  Level Honolulu Center
Tue 05:40:26 AM 22.8000 -154.9833 58° Northeast 470 541 36,000  Level Honolulu Center
Tue 05:41:26 AM 22.8667 -154.8667 58° Northeast 470 541 36,000  Level Honolulu Center
Tue 05:43:00 AM 22.9729 -154.6942 56° Northeast  Level FlightAware Approximate
Tue 05:50:00 AM 23.4377 -153.9146 57° Northeast  Level FlightAware Approximate
Tue 05:51:00 AM 23.5037 -153.8028 57° Northeast  Level FlightAware Approximate
Tue 05:52:00 AM 23.5697 -153.6908 57° Northeast  Level FlightAware Approximate
Tue 05:53:00 AM 23.6355 -153.5788 57° Northeast  Level FlightAware Approximate
Tue 05:54:00 AM 23.7013 -153.4666 57° Northeast  Level FlightAware Approximate
Tue 05:55:00 AM 23.7651 -153.3531 61° Northeast  Level FlightAware Approximate
Tue 05:55:42 AM 23.7833 -153.3667 57° Northeast 461 531 36,000  Level Oakland Oceanic (ODAPS)
Tue 05:56:00 AM 23.8359 -153.2453 57° Northeast  Level FlightAware Approximate
Tue 05:57:00 AM 23.9025 -153.1335 57° Northeast  Level FlightAware Approximate
Tue 05:58:00 AM 23.9691 -153.0217 57° Northeast  Level FlightAware Approximate
Tue 05:59:00 AM 24.0355 -152.9097 57° Northeast  Level FlightAware Approximate
Tue 06:00:00 AM 24.1019 -152.7976 57° Northeast  Level FlightAware Approximate
Tue 06:01:00 AM 24.1684 -152.6856 57° Northeast  Level FlightAware Approximate
Tue 06:02:00 AM 24.4104 -152.3067 57° Northeast 461 531 36,000  Level FlightAware Transoceanic
Tue 06:03:00 AM 24.4796 -152.1883 57° Northeast 461 531 36,000  Level FlightAware Transoceanic
Tue 06:04:00 AM 24.5487 -152.0697 57° Northeast 461 531 36,000  Level FlightAware Transoceanic
Tue 06:05:00 AM 24.6178 -151.9510 57° Northeast 461 531 36,000  Level FlightAware Transoceanic
Tue 06:06:00 AM 24.6867 -151.8322 57° Northeast 461 531 36,000  Level FlightAware Transoceanic
Tue 06:07:00 AM 24.7556 -151.7133 58° Northeast 461 531 36,000  Level FlightAware Transoceanic
Tue 06:08:00 AM 24.8243 -151.5942 58° Northeast 461 531 36,000  Level FlightAware Transoceanic
Tue 06:09:00 AM 24.8930 -151.4750 58° Northeast 461 531 36,000  Level FlightAware Transoceanic
Tue 06:10:00 AM 24.9615 -151.3557 58° Northeast 461 531 36,000  Level FlightAware Transoceanic
Tue 06:11:00 AM 25.0300 -151.2362 58° Northeast 461 531 36,000  Level FlightAware Transoceanic
Tue 06:12:00 AM 25.0984 -151.1166 58° Northeast 461 531 36,000  Level FlightAware Transoceanic
Tue 06:13:00 AM 25.1666 -150.9969 58° Northeast 461 531 36,000  Level FlightAware Transoceanic
Tue 06:14:00 AM 25.2348 -150.8770 58° Northeast 461 531 36,000  Level FlightAware Transoceanic
Tue 06:15:00 AM 25.3029 -150.7570 58° Northeast 461 531 36,000  Level FlightAware Transoceanic
Tue 06:16:00 AM 25.3709 -150.6368 58° Northeast 461 531 36,000  Level FlightAware Transoceanic
Tue 06:17:00 AM 25.4388 -150.5166 58° Northeast 461 531 36,000  Level FlightAware Transoceanic
Tue 06:18:00 AM 25.5066 -150.3961 58° Northeast 461 531 36,000  Level FlightAware Transoceanic
Tue 06:19:00 AM 25.5743 -150.2756 58° Northeast 461 531 36,000  Level FlightAware Transoceanic
Tue 06:20:00 AM 25.6418 -150.1549 58° Northeast 461 531 36,000  Level FlightAware Transoceanic
Tue 06:21:00 AM 25.7094 -150.0341 58° Northeast 461 531 36,000  Level FlightAware Transoceanic
Tue 06:22:00 AM 25.7767 -149.9131 58° Northeast 461 531 36,000  Level FlightAware Transoceanic
Tue 06:23:00 AM 25.8440 -149.7921 58° Northeast 461 531 36,000  Level FlightAware Transoceanic
Tue 06:24:00 AM 25.9112 -149.6708 58° Northeast 461 531 36,000  Level FlightAware Transoceanic
Tue 06:25:00 AM 25.9783 -149.5494 58° Northeast 461 531 36,000  Level FlightAware Transoceanic
Tue 06:26:00 AM 26.0453 -149.4279 58° Northeast 461 531 36,000  Level FlightAware Transoceanic
Tue 06:27:00 AM 26.1122 -149.3063 59° Northeast 461 531 36,000  Level FlightAware Transoceanic
Tue 06:28:00 AM 26.1790 -149.1845 59° Northeast 461 531 36,000  Level FlightAware Transoceanic
Tue 06:29:00 AM 26.2457 -149.0626 59° Northeast 461 531 36,000  Level FlightAware Transoceanic
Tue 06:30:00 AM 26.3123 -148.9405 59° Northeast 461 531 36,000  Level FlightAware Transoceanic
Tue 06:31:00 AM 26.3787 -148.8183 59° Northeast 461 531 36,000  Level FlightAware Transoceanic
Tue 06:32:00 AM 26.4451 -148.6959 59° Northeast 461 531 36,000  Level FlightAware Transoceanic
Tue 06:33:00 AM 26.5114 -148.5735 59° Northeast 461 531 36,000  Level FlightAware Transoceanic
Tue 06:34:00 AM 26.5775 -148.4508 59° Northeast 461 531 36,000  Level FlightAware Transoceanic
Tue 06:35:00 AM 26.6436 -148.3280 59° Northeast 461 531 36,000  Level FlightAware Transoceanic
Tue 06:36:00 AM 26.7096 -148.2051 59° Northeast 461 531 36,000  Level FlightAware Transoceanic
Tue 06:37:00 AM 26.7754 -148.0821 59° Northeast 461 531 36,000  Level FlightAware Transoceanic
Tue 06:38:00 AM 26.8411 -147.9589 59° Northeast 461 531 36,000  Level FlightAware Transoceanic
Tue 06:39:00 AM 26.9068 -147.8355 59° Northeast 461 531 36,000  Level FlightAware Transoceanic
Tue 06:40:00 AM 26.9723 -147.7121 59° Northeast 461 531 36,000  Level FlightAware Transoceanic
Tue 06:41:00 AM 27.0377 -147.5884 59° Northeast 461 531 36,000  Level FlightAware Transoceanic
Tue 06:42:00 AM 27.1030 -147.4646 59° Northeast 461 531 36,000  Level FlightAware Transoceanic
Tue 06:43:00 AM 27.1682 -147.3407 59° Northeast 461 531 36,000  Level FlightAware Transoceanic
Tue 06:44:00 AM 27.2333 -147.2167 59° Northeast 461 531 36,000  Level FlightAware Transoceanic
Tue 06:45:00 AM 27.2959 -147.0973 59° Northeast 461 531 36,000  Level FlightAware Transoceanic
Tue 06:45:56 AM 27.2333 -147.2167 59° Northeast 452 520 36,000  Level Oakland Oceanic (ODAPS)
Tue 06:46:00 AM 27.3584 -146.9778 60° Northeast 461 531 36,000  Level FlightAware Transoceanic
Tue 06:47:00 AM 27.4207 -146.8582 60° Northeast 461 531 36,000  Level FlightAware Transoceanic
Tue 06:48:00 AM 27.4830 -146.7385 60° Northeast 461 531 36,000  Level FlightAware Transoceanic
Tue 06:49:00 AM 27.5451 -146.6186 60° Northeast 461 531 36,000  Level FlightAware Transoceanic
Tue 06:50:00 AM 27.6072 -146.4986 60° Northeast 461 531 36,000  Level FlightAware Transoceanic
Tue 06:51:00 AM 27.6691 -146.3784 60° Northeast 461 531 36,000  Level FlightAware Transoceanic
Tue 06:52:00 AM 27.7404 -146.2396 60° Northeast 452 520 36,000  Level FlightAware Transoceanic
Tue 06:53:00 AM 27.8034 -146.1169 60° Northeast 452 520 36,000  Level FlightAware Transoceanic
Tue 06:54:00 AM 27.8662 -145.9940 60° Northeast 452 520 36,000  Level FlightAware Transoceanic
Tue 06:55:00 AM 27.9289 -145.8709 60° Northeast 452 520 36,000  Level FlightAware Transoceanic
Tue 06:56:00 AM 27.9914 -145.7477 60° Northeast 452 520 36,000  Level FlightAware Transoceanic
Tue 06:57:00 AM 28.0539 -145.6244 60° Northeast 452 520 36,000  Level FlightAware Transoceanic
Tue 06:58:00 AM 28.1163 -145.5009 60° Northeast 452 520 36,000  Level FlightAware Transoceanic
Tue 06:59:00 AM 28.1785 -145.3773 60° Northeast 452 520 36,000  Level FlightAware Transoceanic
Tue 07:00:00 AM 28.2407 -145.2536 60° Northeast 452 520 36,000  Level FlightAware Transoceanic
Tue 07:01:00 AM 28.3027 -145.1296 60° Northeast 452 520 36,000  Level FlightAware Transoceanic
Tue 07:02:00 AM 28.3646 -145.0056 60° Northeast 452 520 36,000  Level FlightAware Transoceanic
Tue 07:03:00 AM 28.4264 -144.8814 61° Northeast 452 520 36,000  Level FlightAware Transoceanic
Tue 07:04:00 AM 28.4881 -144.7570 61° Northeast 452 520 36,000  Level FlightAware Transoceanic
Tue 07:05:00 AM 28.5497 -144.6326 61° Northeast 452 520 36,000  Level FlightAware Transoceanic
Tue 07:06:00 AM 28.6111 -144.5079 61° Northeast 452 520 36,000  Level FlightAware Transoceanic
Tue 07:07:00 AM 28.6725 -144.3831 61° Northeast 452 520 36,000  Level FlightAware Transoceanic
Tue 07:08:00 AM 28.7337 -144.2582 61° Northeast 452 520 36,000  Level FlightAware Transoceanic
Tue 07:09:00 AM 28.7948 -144.1331 61° Northeast 452 520 36,000  Level FlightAware Transoceanic
Tue 07:10:00 AM 28.8558 -144.0079 61° Northeast 452 520 36,000  Level FlightAware Transoceanic
Tue 07:11:00 AM 28.9167 -143.8826 61° Northeast 452 520 36,000  Level FlightAware Transoceanic
Tue 07:12:00 AM 28.9775 -143.7571 61° Northeast 452 520 36,000  Level FlightAware Transoceanic
Tue 07:13:00 AM 29.0381 -143.6314 61° Northeast 452 520 36,000  Level FlightAware Transoceanic
Tue 07:14:00 AM 29.0987 -143.5056 61° Northeast 452 520 36,000  Level FlightAware Transoceanic
Tue 07:15:00 AM 29.1591 -143.3796 61° Northeast 452 520 36,000  Level FlightAware Transoceanic
Tue 07:16:00 AM 29.2194 -143.2535 61° Northeast 452 520 36,000  Level FlightAware Transoceanic
Tue 07:17:00 AM 29.2796 -143.1273 61° Northeast 452 520 36,000  Level FlightAware Transoceanic
Tue 07:18:00 AM 29.3396 -143.0009 61° Northeast 452 520 36,000  Level FlightAware Transoceanic
Tue 07:19:00 AM 29.3996 -142.8743 62° Northeast 452 520 36,000  Level FlightAware Transoceanic
Tue 07:20:00 AM 29.4594 -142.7476 62° Northeast 452 520 36,000  Level FlightAware Transoceanic
Tue 07:21:00 AM 29.5191 -142.6208 62° Northeast 452 520 36,000  Level FlightAware Transoceanic
Tue 07:22:00 AM 29.5787 -142.4938 62° Northeast 452 520 36,000  Level FlightAware Transoceanic
Tue 07:23:00 AM 29.6382 -142.3667 62° Northeast 452 520 36,000  Level FlightAware Transoceanic
Tue 07:24:00 AM 29.6975 -142.2393 62° Northeast 452 520 36,000  Level FlightAware Transoceanic
Tue 07:25:00 AM 29.7567 -142.1119 62° Northeast 452 520 36,000  Level FlightAware Transoceanic
Tue 07:26:00 AM 29.8158 -141.9843 62° Northeast 452 520 36,000  Level FlightAware Transoceanic
Tue 07:27:00 AM 29.8748 -141.8566 62° Northeast 452 520 36,000  Level FlightAware Transoceanic
Tue 07:28:00 AM 29.9337 -141.7287 62° Northeast 452 520 36,000  Level FlightAware Transoceanic
Tue 07:29:00 AM 29.9924 -141.6006 62° Northeast 452 520 36,000  Level FlightAware Transoceanic
Tue 07:30:00 AM 30.0510 -141.4724 62° Northeast 452 520 36,000  Level FlightAware Transoceanic
Tue 07:31:00 AM 30.1095 -141.3441 62° Northeast 452 520 36,000  Level FlightAware Transoceanic
Tue 07:32:00 AM 30.1678 -141.2155 62° Northeast 452 520 36,000  Level FlightAware Transoceanic
Tue 07:33:00 AM 30.2261 -141.0869 62° Northeast 452 520 36,000  Level FlightAware Transoceanic
Tue 07:34:00 AM 30.2842 -140.9581 62° Northeast 452 520 36,000  Level FlightAware Transoceanic
Tue 07:35:00 AM 30.3421 -140.8291 63° Northeast 452 520 36,000  Level FlightAware Transoceanic
Tue 07:36:00 AM 30.4000 -140.7000 63° Northeast 452 520 36,000  Level FlightAware Transoceanic
Tue 07:37:00 AM 30.4590 -140.5679 63° Northeast 452 520 36,000  Level FlightAware Transoceanic
Tue 07:38:00 AM 30.5180 -140.4357 63° Northeast 452 520 36,000  Level FlightAware Transoceanic
Tue 07:38:04 AM 30.4000 -140.7000 63° Northeast 461 531 36,000  Level Oakland Oceanic (ODAPS)
Tue 07:39:00 AM 30.5767 -140.3033 63° Northeast 452 520 36,000  Level FlightAware Transoceanic
Tue 07:40:00 AM 30.6354 -140.1708 63° Northeast 452 520 36,000  Level FlightAware Transoceanic
Tue 07:41:00 AM 30.6939 -140.0381 63° Northeast 452 520 36,000  Level FlightAware Transoceanic
Tue 07:42:00 AM 30.7523 -139.9052 63° Northeast 452 520 36,000  Level FlightAware Transoceanic
Tue 07:43:00 AM 30.8105 -139.7722 63° Northeast 452 520 36,000  Level FlightAware Transoceanic
Tue 07:44:00 AM 30.8686 -139.6390 63° Northeast 461 531 36,000  Level FlightAware Transoceanic
Tue 07:45:00 AM 30.9266 -139.5056 63° Northeast 461 531 36,000  Level FlightAware Transoceanic
Tue 07:46:00 AM 30.9844 -139.3721 63° Northeast 461 531 36,000  Level FlightAware Transoceanic
Tue 07:47:00 AM 31.0421 -139.2384 63° Northeast 461 531 36,000  Level FlightAware Transoceanic
Tue 07:48:00 AM 31.0997 -139.1046 63° Northeast 461 531 36,000  Level FlightAware Transoceanic
Tue 07:49:00 AM 31.1571 -138.9706 63° Northeast 461 531 36,000  Level FlightAware Transoceanic
Tue 07:50:00 AM 31.2144 -138.8364 64° Northeast 461 531 36,000  Level FlightAware Transoceanic
Tue 07:51:00 AM 31.2715 -138.7021 64° Northeast 461 531 36,000  Level FlightAware Transoceanic
Tue 07:52:00 AM 31.3286 -138.5676 64° Northeast 461 531 36,000  Level FlightAware Transoceanic
Tue 07:53:00 AM 31.3854 -138.4330 64° Northeast 461 531 36,000  Level FlightAware Transoceanic
Tue 07:54:00 AM 31.4421 -138.2982 64° Northeast 461 531 36,000  Level FlightAware Transoceanic
Tue 07:55:00 AM 31.4987 -138.1632 64° Northeast 461 531 36,000  Level FlightAware Transoceanic
Tue 07:56:00 AM 31.5551 -138.0280 64° Northeast 461 531 36,000  Level FlightAware Transoceanic
Tue 07:57:00 AM 31.6114 -137.8927 64° Northeast 461 531 36,000  Level FlightAware Transoceanic
Tue 07:58:00 AM 31.6676 -137.7573 64° Northeast 461 531 36,000  Level FlightAware Transoceanic
Tue 07:59:00 AM 31.7236 -137.6216 64° Northeast 461 531 36,000  Level FlightAware Transoceanic
Tue 08:00:00 AM 31.7795 -137.4858 64° Northeast 461 531 36,000  Level FlightAware Transoceanic
Tue 08:01:00 AM 31.8352 -137.3499 64° Northeast 461 531 36,000  Level FlightAware Transoceanic
Tue 08:02:00 AM 31.8908 -137.2138 64° Northeast 461 531 36,000  Level FlightAware Transoceanic
Tue 08:03:00 AM 31.9462 -137.0775 64° Northeast 461 531 36,000  Level FlightAware Transoceanic
Tue 08:04:00 AM 32.0015 -136.9410 65° Northeast 461 531 36,000  Level FlightAware Transoceanic
Tue 08:05:00 AM 32.0566 -136.8044 65° Northeast 461 531 36,000  Level FlightAware Transoceanic
Tue 08:06:00 AM 32.1116 -136.6676 65° Northeast 461 531 36,000  Level FlightAware Transoceanic
Tue 08:07:00 AM 32.1665 -136.5307 65° Northeast 461 531 36,000  Level FlightAware Transoceanic
Tue 08:08:00 AM 32.2212 -136.3936 65° Northeast 461 531 36,000  Level FlightAware Transoceanic
Tue 08:09:00 AM 32.2757 -136.2563 65° Northeast 461 531 36,000  Level FlightAware Transoceanic
Tue 08:10:00 AM 32.3301 -136.1189 65° Northeast 461 531 36,000  Level FlightAware Transoceanic
Tue 08:11:00 AM 32.3844 -135.9813 65° Northeast 461 531 36,000  Level FlightAware Transoceanic
Tue 08:12:00 AM 32.4385 -135.8435 65° Northeast 461 531 36,000  Level FlightAware Transoceanic
Tue 08:13:00 AM 32.4924 -135.7056 65° Northeast 461 531 36,000  Level FlightAware Transoceanic
Tue 08:14:00 AM 32.5462 -135.5674 65° Northeast 461 531 36,000  Level FlightAware Transoceanic
Tue 08:15:00 AM 32.5999 -135.4292 65° Northeast 461 531 36,000  Level FlightAware Transoceanic
Tue 08:16:00 AM 32.6534 -135.2908 65° Northeast 461 531 36,000  Level FlightAware Transoceanic
Tue 08:17:00 AM 32.7067 -135.1522 65° Northeast 461 531 36,000  Level FlightAware Transoceanic
Tue 08:18:00 AM 32.7599 -135.0134 66° East 461 531 36,000  Level FlightAware Transoceanic
Tue 08:19:00 AM 32.8129 -134.8745 66° East 461 531 36,000  Level FlightAware Transoceanic
Tue 08:20:00 AM 32.8658 -134.7354 66° East 461 531 36,000  Level FlightAware Transoceanic
Tue 08:21:00 AM 32.9186 -134.5961 66° East 461 531 36,000  Level FlightAware Transoceanic
Tue 08:22:00 AM 32.9711 -134.4567 66° East 461 531 36,000  Level FlightAware Transoceanic
Tue 08:23:00 AM 33.0236 -134.3171 66° East 461 531 36,000  Level FlightAware Transoceanic
Tue 08:24:00 AM 33.0758 -134.1774 66° East 461 531 36,000  Level FlightAware Transoceanic
Tue 08:25:00 AM 33.1279 -134.0374 66° East 461 531 36,000  Level FlightAware Transoceanic
Tue 08:26:00 AM 33.1799 -133.8973 66° East 461 531 36,000  Level FlightAware Transoceanic
Tue 08:27:00 AM 33.2317 -133.7571 66° East 461 531 36,000  Level FlightAware Transoceanic
Tue 08:28:00 AM 33.2833 -133.6167 66° East 461 531 36,000  Level FlightAware Transoceanic
Tue 08:29:00 AM 33.3367 -133.4707 66° East 461 531 36,000  Level FlightAware Transoceanic
Tue 08:30:00 AM 33.3900 -133.3245 66° East 461 531 36,000  Level FlightAware Transoceanic
Tue 08:30:07 AM 33.2833 -133.6167 66° East 490 564 36,000  Level Oakland Oceanic (ODAPS)
Tue 08:31:00 AM 33.4430 -133.1782 67° East 461 531 36,000  Level FlightAware Transoceanic
Tue 08:32:00 AM 33.4959 -133.0317 67° East 461 531 36,000  Level FlightAware Transoceanic
Tue 08:33:00 AM 33.5486 -132.8850 67° East 461 531 36,000  Level FlightAware Transoceanic
Tue 08:34:00 AM 33.6012 -132.7381 67° East 461 531 36,000  Level FlightAware Transoceanic
Tue 08:35:00 AM 33.6536 -132.5911 67° East 461 531 36,000  Level FlightAware Transoceanic
Tue 08:36:00 AM 33.7673 -132.2693 67° East 490 564 36,000  Level FlightAware Transoceanic
Tue 08:37:00 AM 33.8202 -132.1187 67° East 490 564 36,000  Level FlightAware Transoceanic
Tue 08:38:00 AM 33.8729 -131.9679 67° East 490 564 36,000  Level FlightAware Transoceanic
Tue 08:39:00 AM 33.9254 -131.8169 67° East 490 564 36,000  Level FlightAware Transoceanic
Tue 08:40:00 AM 33.9777 -131.6657 67° East 490 564 36,000  Level FlightAware Transoceanic
Tue 08:41:00 AM 34.0298 -131.5143 67° East 490 564 36,000  Level FlightAware Transoceanic
Tue 08:42:00 AM 34.0818 -131.3628 68° East 490 564 36,000  Level FlightAware Transoceanic
Tue 08:43:00 AM 34.1336 -131.2110 68° East 490 564 36,000  Level FlightAware Transoceanic
Tue 08:44:00 AM 34.1851 -131.0591 68° East 490 564 36,000  Level FlightAware Transoceanic
Tue 08:45:00 AM 34.2365 -130.9070 68° East 490 564 36,000  Level FlightAware Transoceanic
Tue 08:46:00 AM 34.2877 -130.7547 68° East 490 564 36,000  Level FlightAware Transoceanic
Tue 08:47:00 AM 34.3387 -130.6022 68° East 490 564 36,000  Level FlightAware Transoceanic
Tue 08:48:00 AM 34.3895 -130.4495 68° East 490 564 36,000  Level FlightAware Transoceanic
Tue 08:49:00 AM 34.4402 -130.2966 68° East 490 564 36,000  Level FlightAware Transoceanic
Tue 08:50:00 AM 34.4906 -130.1436 68° East 490 564 36,000  Level FlightAware Transoceanic
Tue 08:51:00 AM 34.5409 -129.9904 68° East 490 564 36,000  Level FlightAware Transoceanic
Tue 08:52:00 AM 34.5909 -129.8369 68° East 490 564 36,000  Level FlightAware Transoceanic
Tue 08:53:00 AM 34.6408 -129.6833 69° East 490 564 36,000  Level FlightAware Transoceanic
Tue 08:54:00 AM 34.6905 -129.5296 69° East 490 564 36,000  Level FlightAware Transoceanic
Tue 08:55:00 AM 34.7400 -129.3756 69° East 490 564 36,000  Level FlightAware Transoceanic
Tue 08:56:00 AM 34.7892 -129.2214 69° East 490 564 36,000  Level FlightAware Transoceanic
Tue 08:57:00 AM 34.8383 -129.0671 69° East 490 564 36,000  Level FlightAware Transoceanic
Tue 08:58:00 AM 34.8872 -128.9126 69° East 490 564 36,000  Level FlightAware Transoceanic
Tue 08:59:00 AM 34.9359 -128.7579 69° East 490 564 36,000  Level FlightAware Transoceanic
Tue 09:00:00 AM 34.9844 -128.6030 69° East 490 564 36,000  Level FlightAware Transoceanic
Tue 09:01:00 AM 35.0327 -128.4479 69° East 490 564 36,000  Level FlightAware Transoceanic
Tue 09:02:00 AM 35.0809 -128.2926 69° East 490 564 36,000  Level FlightAware Transoceanic
Tue 09:03:00 AM 35.1288 -128.1372 69° East 490 564 36,000  Level FlightAware Transoceanic
Tue 09:04:00 AM 35.1765 -127.9816 69° East 490 564 36,000  Level FlightAware Transoceanic
Tue 09:05:00 AM 35.2240 -127.8258 70° East 490 564 36,000  Level FlightAware Transoceanic
Tue 09:06:00 AM 35.2713 -127.6698 70° East 490 564 36,000  Level FlightAware Transoceanic
Tue 09:07:00 AM 35.3184 -127.5136 70° East 490 564 36,000  Level FlightAware Transoceanic
Tue 09:08:00 AM 35.3653 -127.3573 70° East 490 564 36,000  Level FlightAware Transoceanic
Tue 09:09:00 AM 35.4120 -127.2008 70° East 490 564 36,000  Level FlightAware Transoceanic
Tue 09:10:00 AM 35.4586 -127.0441 70° East 490 564 36,000  Level FlightAware Transoceanic
Tue 09:11:00 AM 35.5049 -126.8872 70° East 490 564 36,000  Level FlightAware Transoceanic
Tue 09:12:00 AM 35.5510 -126.7301 70° East 490 564 36,000  Level FlightAware Transoceanic
Tue 09:13:00 AM 35.5969 -126.5728 70° East 490 564 36,000  Level FlightAware Transoceanic
Tue 09:14:00 AM 35.6426 -126.4154 70° East 490 564 36,000  Level FlightAware Transoceanic
Tue 09:15:00 AM 35.6880 -126.2578 70° East 490 564 36,000  Level FlightAware Transoceanic
Tue 09:16:00 AM 35.7333 -126.1000 67° East 490 564 36,000  Level FlightAware Transoceanic
Tue 09:16:39 AM 35.7358 -126.0908 67° East 506 582 36,000  Level Oakland Center
Tue 09:17:00 AM 35.7841 -125.9526 67° East 490 564 36,000  Level FlightAware Transoceanic
Tue 09:17:39 AM 35.7908 -125.9317 67° East 507 583 36,000  Level Oakland Center
Tue 09:18:00 AM 35.8346 -125.8050 67° East 490 564 36,000  Level FlightAware Transoceanic
Tue 09:18:40 AM 35.8547 -125.7797 63° Northeast 506 582 36,000  Level Oakland Center
Tue 09:19:00 AM 35.8850 -125.6572 67° East 490 564 36,000  Level FlightAware Transoceanic
Tue 09:19:40 AM 35.9297 -125.6356 57° Northeast 505 581 36,000  Level Oakland Center
Tue 09:20:00 AM 35.9352 -125.5093 67° East 490 564 36,000  Level FlightAware Transoceanic
Tue 09:20:41 AM 36.0064 -125.4933 56° Northeast 503 579 36,000  Level Oakland Center
Tue 09:21:00 AM 35.9852 -125.3611 67° East 490 564 36,000  Level FlightAware Transoceanic
Tue 09:21:41 AM 36.0753 -125.3436 60° Northeast 502 578 36,000  Level Oakland Center
Tue 09:22:42 AM 36.1464 -125.1961 59° Northeast 500 575 36,000 -344 Level Oakland Center
Tue 09:23:43 AM 36.2183 -125.0494 59° Northeast 500 575 35,300 -1,686 Descending Oakland Center
Tue 09:24:43 AM 36.2911 -124.9006 59° Northeast 503 579 32,600 -2,876 Descending Oakland Center
Tue 09:25:44 AM 36.3664 -124.7492 58° Northeast 513 590 29,500 -2,479 Descending Oakland Center
Tue 09:26:44 AM 36.4383 -124.5997 59° Northeast 510 587 27,600 -2,033 Descending Oakland Center
Tue 09:27:45 AM 36.5089 -124.4569 58° Northeast 493 567 25,400 -2,213 Descending Oakland Center
Tue 09:28:46 AM 36.5767 -124.3158 59° Northeast 480 552 23,100 -2,182 Descending Oakland Center
Tue 09:29:46 AM 36.6425 -124.1789 59° Northeast 469 540 21,000 -2,033 Descending Oakland Center
Tue 09:30:47 AM 36.7058 -124.0456 59° Northeast 454 522 19,000 -1,918 Descending Oakland Center
Tue 09:31:48 AM 36.7667 -123.9178 59° Northeast 437 503 17,100 -1,983 Descending Oakland Center
Tue 09:32:48 AM 36.8381 -123.7686 59° Northeast 420 483 15,000 -1,983 Descending Oakland Center
Tue 09:33:49 AM 36.8933 -123.6500 60° Northeast 400 460 13,100 -1,426 Descending Oakland Center
Tue 09:34:50 AM 36.9469 -123.5358 60° Northeast 386 444 12,100 -893 Descending Oakland Center
Tue 09:35:50 AM 36.9933 -123.4358 60° Northeast 339 390 11,300 -1,091 Descending Oakland Center
Tue 09:36:51 AM 37.0378 -123.3378 60° Northeast 325 374 9,900 -1,328 Descending Oakland Center
Tue 09:37:52 AM 37.0825 -123.2417 60° Northeast 322 371 8,600 -942 Descending Oakland Center
Tue 09:38:52 AM 37.1258 -123.1489 60° Northeast 313 360 8,000 -298 Descending Oakland Center
Tue 09:39:53 AM 37.1706 -123.0553 59° Northeast 315 362 8,000  Level Oakland Center
Tue 09:40:54 AM 37.2131 -122.9614 60° Northeast 314 361 8,000  Level Oakland Center
Tue 09:41:55 AM 37.2583 -122.8706 58° Northeast 317 365 8,000  Level Oakland Center
Tue 09:42:55 AM 37.3164 -122.8014 43° Northeast 311 358 8,000  Level Oakland Center
Tue 09:43:56 AM 37.3047 -122.7039 99° East 285 328 8,000 -344 Level Oakland Center
Tue 09:44:57 AM 37.2892 -122.6178 103° East 257 296 7,300 -836 Descending Oakland Center
Tue 09:45:58 AM 37.2758 -122.5331 101° East 253 291 6,300 -639 Descending Oakland Center
Tue 09:46:59 AM 37.3411 -122.5261 North 244 281 6,000 -149 Descending Oakland Center
Tue 09:47:59 AM 37.3961 -122.5575 336° Northwest 259 298 6,000  Level Oakland Center
Tue 09:49:00 AM 37.4625 -122.5322 17° North 253 291 6,000  Level Oakland Center
Tue 09:50:01 AM 37.5317 -122.5158 11° North 253 291 6,000  Level Oakland Center
Tue 09:51:02 AM 37.6003 -122.4986 11° North 253 291 6,000  Level Oakland Center
Tue 09:51:41 AM 37.6500 -122.4833 14° North 250 288 6,000  Level Northern Cal TRACON
Tue 09:52:41 AM 37.7167 -122.4500 22° Northeast 253 291 6,000  Level Northern Cal TRACON
Tue 09:53:41 AM 37.7833 -122.4167 22° Northeast 252 290 6,000  Level Northern Cal TRACON
Tue 09:54:41 AM 37.8333 -122.3667 38° Northeast 229 264 6,000  Level Northern Cal TRACON
Tue 09:55:41 AM 37.8833 -122.3333 28° Northeast 225 259 6,000  Level Northern Cal TRACON
Tue 09:56:35 AM 37.9167 -122.3000 38° Northeast 231 266 6,000  Level Northern Cal TRACON
Tue 09:57:07 AM 37.9217 -122.2614 81° East 237 273 6,000 -516 Level Oakland Center
Tue 09:58:08 AM 37.8728 -122.2169 144° Southeast 193 222 5,200 -787 Descending Oakland Center
Tue 09:59:09 AM 37.8286 -122.2294 193° South 168 193 4,400 -787 Descending Oakland Center
Tue 10:00:10 AM 37.7925 -122.2547 209° Southwest 152 175 3,600 -787 Descending Oakland Center
Tue 10:01:11 AM 37.7569 -122.2783 208° Southwest 146 168 2,800 -787 Descending Oakland Center

Login

Don't have an account? Register now (free) for customized features, flight alerts, and more!